sensor_id;sensor_type;location;lat;lon;timestamp;temperature;humidity
40960;DHT22;27842;52.272;8.052;2022-12-29T00:01:34;9.60;99.90
40960;DHT22;27842;52.272;8.052;2022-12-29T00:03:59;9.60;99.90
40960;DHT22;27842;52.272;8.052;2022-12-29T00:06:25;9.60;99.90
40960;DHT22;27842;52.272;8.052;2022-12-29T00:08:51;9.60;99.90
40960;DHT22;27842;52.272;8.052;2022-12-29T00:11:18;9.60;99.90
40960;DHT22;27842;52.272;8.052;2022-12-29T00:13:45;9.60;99.90
40960;DHT22;27842;52.272;8.052;2022-12-29T00:16:30;9.60;99.90
40960;DHT22;27842;52.272;8.052;2022-12-29T00:18:56;9.60;99.90
40960;DHT22;27842;52.272;8.052;2022-12-29T00:21:23;9.70;99.90
40960;DHT22;27842;52.272;8.052;2022-12-29T00:24:19;9.70;99.90
40960;DHT22;27842;52.272;8.052;2022-12-29T00:27:13;9.70;99.90
40960;DHT22;27842;52.272;8.052;2022-12-29T00:29:58;9.70;99.90
40960;DHT22;27842;52.272;8.052;2022-12-29T00:32:42;9.70;99.90
40960;DHT22;27842;52.272;8.052;2022-12-29T00:35:30;9.80;99.90
40960;DHT22;27842;52.272;8.052;2022-12-29T00:38:00;9.80;99.90
40960;DHT22;27842;52.272;8.052;2022-12-29T00:40:46;9.80;99.90
40960;DHT22;27842;52.272;8.052;2022-12-29T00:43:30;9.80;99.90
40960;DHT22;27842;52.272;8.052;2022-12-29T00:46:14;9.80;99.90
40960;DHT22;27842;52.272;8.052;2022-12-29T00:48:40;9.80;99.90
40960;DHT22;27842;52.272;8.052;2022-12-29T00:51:24;9.80;99.90
40960;DHT22;27842;52.272;8.052;2022-12-29T00:53:49;9.80;99.90
40960;DHT22;27842;52.272;8.052;2022-12-29T00:56:15;9.90;99.90
40960;DHT22;27842;52.272;8.052;2022-12-29T00:58:40;9.90;99.90
40960;DHT22;27842;52.272;8.052;2022-12-29T01:01:07;9.90;99.90
40960;DHT22;27842;52.272;8.052;2022-12-29T01:03:35;10.00;99.90
40960;DHT22;27842;52.272;8.052;2022-12-29T01:06:02;10.00;99.90
40960;DHT22;27842;52.272;8.052;2022-12-29T01:08:28;9.90;99.90
40960;DHT22;27842;52.272;8.052;2022-12-29T01:11:02;9.90;99.90
40960;DHT22;27842;52.272;8.052;2022-12-29T01:13:29;10.00;99.90
40960;DHT22;27842;52.272;8.052;2022-12-29T01:15:55;10.00;99.90
40960;DHT22;27842;52.272;8.052;2022-12-29T01:18:21;10.00;99.90
40960;DHT22;27842;52.272;8.052;2022-12-29T01:20:47;10.00;99.90
40960;DHT22;27842;52.272;8.052;2022-12-29T01:23:13;10.00;99.90
40960;DHT22;27842;52.272;8.052;2022-12-29T01:25:39;10.00;99.90
40960;DHT22;27842;52.272;8.052;2022-12-29T01:28:04;10.00;99.90
40960;DHT22;27842;52.272;8.052;2022-12-29T01:30:30;10.10;99.90
40960;DHT22;27842;52.272;8.052;2022-12-29T01:32:57;10.10;99.90
40960;DHT22;27842;52.272;8.052;2022-12-29T01:35:23;10.10;99.90
40960;DHT22;27842;52.272;8.052;2022-12-29T01:37:49;10.10;99.90
40960;DHT22;27842;52.272;8.052;2022-12-29T01:40:15;10.10;99.90
40960;DHT22;27842;52.272;8.052;2022-12-29T01:42:40;10.10;99.90
40960;DHT22;27842;52.272;8.052;2022-12-29T01:47:40;10.20;99.90
40960;DHT22;27842;52.272;8.052;2022-12-29T01:50:14;10.20;99.90
40960;DHT22;27842;52.272;8.052;2022-12-29T01:52:47;10.10;99.90
40960;DHT22;27842;52.272;8.052;2022-12-29T01:55:15;10.10;99.90
40960;DHT22;27842;52.272;8.052;2022-12-29T01:57:43;10.10;99.90
40960;DHT22;27842;52.272;8.052;2022-12-29T02:00:13;10.10;99.90
40960;DHT22;27842;52.272;8.052;2022-12-29T02:02:41;10.00;99.90
40960;DHT22;27842;52.272;8.052;2022-12-29T02:05:14;10.00;99.90
40960;DHT22;27842;52.272;8.052;2022-12-29T02:07:41;10.10;99.90
40960;DHT22;27842;52.272;8.052;2022-12-29T02:10:07;10.00;99.90
40960;DHT22;27842;52.272;8.052;2022-12-29T02:12:33;10.10;99.90
40960;DHT22;27842;52.272;8.052;2022-12-29T02:15:01;10.10;99.90
40960;DHT22;27842;52.272;8.052;2022-12-29T02:23:15;10.10;99.90
40960;DHT22;27842;52.272;8.052;2022-12-29T02:26:07;10.10;99.90
40960;DHT22;27842;52.272;8.052;2022-12-29T02:31:46;10.10;99.90
40960;DHT22;27842;52.272;8.052;2022-12-29T02:42:41;10.10;99.90
40960;DHT22;27842;52.272;8.052;2022-12-29T02:48:07;10.20;99.90
40960;DHT22;27842;52.272;8.052;2022-12-29T02:50:51;10.10;99.90
40960;DHT22;27842;52.272;8.052;2022-12-29T02:53:18;10.20;99.90
40960;DHT22;27842;52.272;8.052;2022-12-29T02:56:04;10.20;99.90
40960;DHT22;27842;52.272;8.052;2022-12-29T02:58:30;10.30;99.90
40960;DHT22;27842;52.272;8.052;2022-12-29T03:04:31;10.30;99.90
40960;DHT22;27842;52.272;8.052;2022-12-29T03:07:32;10.30;99.90
40960;DHT22;27842;52.272;8.052;2022-12-29T03:12:54;10.30;99.90
40960;DHT22;27842;52.272;8.052;2022-12-29T03:15:46;10.40;99.90
40960;DHT22;27842;52.272;8.052;2022-12-29T03:18:56;10.30;99.90
40960;DHT22;27842;52.272;8.052;2022-12-29T03:21:34;10.40;99.90
40960;DHT22;27842;52.272;8.052;2022-12-29T03:24:25;10.40;99.90
40960;DHT22;27842;52.272;8.052;2022-12-29T03:26:54;10.40;99.90
40960;DHT22;27842;52.272;8.052;2022-12-29T03:29:20;10.40;99.90
40960;DHT22;27842;52.272;8.052;2022-12-29T03:31:48;10.40;99.90
40960;DHT22;27842;52.272;8.052;2022-12-29T03:34:15;10.40;99.90
40960;DHT22;27842;52.272;8.052;2022-12-29T03:36:53;10.40;99.90
40960;DHT22;27842;52.272;8.052;2022-12-29T03:39:22;10.40;99.90
40960;DHT22;27842;52.272;8.052;2022-12-29T03:41:50;10.50;99.90
40960;DHT22;27842;52.272;8.052;2022-12-29T03:44:17;10.50;99.90
40960;DHT22;27842;52.272;8.052;2022-12-29T03:46:42;10.50;99.90
40960;DHT22;27842;52.272;8.052;2022-12-29T03:49:08;10.50;99.90
40960;DHT22;27842;52.272;8.052;2022-12-29T03:51:33;10.50;99.90
40960;DHT22;27842;52.272;8.052;2022-12-29T03:53:59;10.50;99.90
40960;DHT22;27842;52.272;8.052;2022-12-29T03:56:24;10.60;99.90
40960;DHT22;27842;52.272;8.052;2022-12-29T03:58:50;10.50;99.90
40960;DHT22;27842;52.272;8.052;2022-12-29T04:01:16;10.60;99.90
40960;DHT22;27842;52.272;8.052;2022-12-29T04:03:41;10.60;99.90
40960;DHT22;27842;52.272;8.052;2022-12-29T04:06:07;10.60;99.90
40960;DHT22;27842;52.272;8.052;2022-12-29T04:08:33;10.60;99.90
40960;DHT22;27842;52.272;8.052;2022-12-29T04:10:58;10.60;99.90
40960;DHT22;27842;52.272;8.052;2022-12-29T04:13:24;10.60;99.90
40960;DHT22;27842;52.272;8.052;2022-12-29T04:15:49;10.60;99.90
40960;DHT22;27842;52.272;8.052;2022-12-29T04:18:15;10.70;99.90
40960;DHT22;27842;52.272;8.052;2022-12-29T04:20:41;10.80;99.90
40960;DHT22;27842;52.272;8.052;2022-12-29T04:23:26;10.70;99.90
40960;DHT22;27842;52.272;8.052;2022-12-29T04:25:52;10.80;99.90
40960;DHT22;27842;52.272;8.052;2022-12-29T04:28:18;10.80;99.90
40960;DHT22;27842;52.272;8.052;2022-12-29T04:30:44;10.80;99.90
40960;DHT22;27842;52.272;8.052;2022-12-29T04:33:09;10.80;99.90
40960;DHT22;27842;52.272;8.052;2022-12-29T04:35:35;10.80;99.90
40960;DHT22;27842;52.272;8.052;2022-12-29T04:38:01;10.80;99.90
40960;DHT22;27842;52.272;8.052;2022-12-29T04:40:27;10.90;99.90
40960;DHT22;27842;52.272;8.052;2022-12-29T04:42:53;10.90;99.90
40960;DHT22;27842;52.272;8.052;2022-12-29T04:45:18;10.90;99.90
40960;DHT22;27842;52.272;8.052;2022-12-29T04:47:44;10.90;99.90
40960;DHT22;27842;52.272;8.052;2022-12-29T04:50:09;10.90;99.90
40960;DHT22;27842;52.272;8.052;2022-12-29T04:52:35;11.00;99.90
40960;DHT22;27842;52.272;8.052;2022-12-29T04:55:01;11.00;99.90
40960;DHT22;27842;52.272;8.052;2022-12-29T04:57:27;11.00;99.90
40960;DHT22;27842;52.272;8.052;2022-12-29T04:59:52;11.00;99.90
40960;DHT22;27842;52.272;8.052;2022-12-29T05:02:18;11.00;99.90
40960;DHT22;27842;52.272;8.052;2022-12-29T05:04:44;11.00;99.90
40960;DHT22;27842;52.272;8.052;2022-12-29T05:07:09;11.00;99.90
40960;DHT22;27842;52.272;8.052;2022-12-29T05:09:35;11.00;99.90
40960;DHT22;27842;52.272;8.052;2022-12-29T05:12:01;11.00;99.90
40960;DHT22;27842;52.272;8.052;2022-12-29T05:14:26;11.00;99.90
40960;DHT22;27842;52.272;8.052;2022-12-29T05:16:52;11.00;99.90
40960;DHT22;27842;52.272;8.052;2022-12-29T05:19:18;11.00;99.90
40960;DHT22;27842;52.272;8.052;2022-12-29T05:21:43;10.90;99.90
40960;DHT22;27842;52.272;8.052;2022-12-29T05:24:09;11.00;99.90
40960;DHT22;27842;52.272;8.052;2022-12-29T05:26:35;10.90;99.90
40960;DHT22;27842;52.272;8.052;2022-12-29T05:29:00;10.80;99.90
40960;DHT22;27842;52.272;8.052;2022-12-29T05:31:27;10.80;99.90
40960;DHT22;27842;52.272;8.052;2022-12-29T05:33:52;10.70;99.90
40960;DHT22;27842;52.272;8.052;2022-12-29T05:36:18;10.60;99.90
40960;DHT22;27842;52.272;8.052;2022-12-29T05:38:44;10.60;99.90
40960;DHT22;27842;52.272;8.052;2022-12-29T05:41:09;10.50;99.90
40960;DHT22;27842;52.272;8.052;2022-12-29T05:43:35;10.50;99.90
40960;DHT22;27842;52.272;8.052;2022-12-29T05:46:01;10.40;99.90
40960;DHT22;27842;52.272;8.052;2022-12-29T05:48:27;10.40;99.90
40960;DHT22;27842;52.272;8.052;2022-12-29T05:50:52;10.40;99.90
40960;DHT22;27842;52.272;8.052;2022-12-29T05:53:18;10.30;99.90
40960;DHT22;27842;52.272;8.052;2022-12-29T05:55:46;10.30;99.90
40960;DHT22;27842;52.272;8.052;2022-12-29T05:58:12;10.20;99.90
40960;DHT22;27842;52.272;8.052;2022-12-29T06:00:37;10.20;99.90
40960;DHT22;27842;52.272;8.052;2022-12-29T06:03:03;10.20;99.90
40960;DHT22;27842;52.272;8.052;2022-12-29T06:05:29;10.10;99.90
40960;DHT22;27842;52.272;8.052;2022-12-29T06:07:55;10.10;99.90
40960;DHT22;27842;52.272;8.052;2022-12-29T06:10:20;10.10;99.90
40960;DHT22;27842;52.272;8.052;2022-12-29T06:12:46;10.00;99.90
40960;DHT22;27842;52.272;8.052;2022-12-29T06:15:12;10.00;99.90
40960;DHT22;27842;52.272;8.052;2022-12-29T06:17:38;10.00;99.90
40960;DHT22;27842;52.272;8.052;2022-12-29T06:20:05;9.90;99.90
40960;DHT22;27842;52.272;8.052;2022-12-29T06:22:30;9.90;99.90
40960;DHT22;27842;52.272;8.052;2022-12-29T06:24:56;9.90;99.90
40960;DHT22;27842;52.272;8.052;2022-12-29T06:27:22;9.90;99.90
40960;DHT22;27842;52.272;8.052;2022-12-29T06:29:47;9.90;99.90
40960;DHT22;27842;52.272;8.052;2022-12-29T06:32:13;9.90;99.90
40960;DHT22;27842;52.272;8.052;2022-12-29T06:34:38;9.90;99.90
40960;DHT22;27842;52.272;8.052;2022-12-29T06:37:04;9.80;99.90
40960;DHT22;27842;52.272;8.052;2022-12-29T06:39:29;9.90;99.90
40960;DHT22;27842;52.272;8.052;2022-12-29T06:41:55;9.90;99.90
40960;DHT22;27842;52.272;8.052;2022-12-29T06:44:21;9.90;99.90
40960;DHT22;27842;52.272;8.052;2022-12-29T06:46:47;9.90;99.90
40960;DHT22;27842;52.272;8.052;2022-12-29T06:49:12;9.80;99.90
40960;DHT22;27842;52.272;8.052;2022-12-29T06:51:38;9.80;99.90
40960;DHT22;27842;52.272;8.052;2022-12-29T06:54:04;9.80;99.90
40960;DHT22;27842;52.272;8.052;2022-12-29T06:56:29;9.90;99.90
40960;DHT22;27842;52.272;8.052;2022-12-29T06:58:55;9.80;99.90
40960;DHT22;27842;52.272;8.052;2022-12-29T07:01:20;9.80;99.90
40960;DHT22;27842;52.272;8.052;2022-12-29T07:03:46;9.90;99.90
40960;DHT22;27842;52.272;8.052;2022-12-29T07:06:11;9.90;99.90
40960;DHT22;27842;52.272;8.052;2022-12-29T07:08:37;9.90;99.90
40960;DHT22;27842;52.272;8.052;2022-12-29T07:11:04;9.90;99.90
40960;DHT22;27842;52.272;8.052;2022-12-29T07:13:29;9.90;99.90
40960;DHT22;27842;52.272;8.052;2022-12-29T07:15:55;9.90;99.90
40960;DHT22;27842;52.272;8.052;2022-12-29T07:18:20;10.00;99.90
40960;DHT22;27842;52.272;8.052;2022-12-29T07:20:46;10.00;99.90
40960;DHT22;27842;52.272;8.052;2022-12-29T07:23:11;10.00;99.90
40960;DHT22;27842;52.272;8.052;2022-12-29T07:25:37;9.90;99.90
40960;DHT22;27842;52.272;8.052;2022-12-29T07:28:03;9.90;99.90
40960;DHT22;27842;52.272;8.052;2022-12-29T07:30:29;9.90;99.90
40960;DHT22;27842;52.272;8.052;2022-12-29T07:32:55;9.90;99.90
40960;DHT22;27842;52.272;8.052;2022-12-29T07:35:20;9.90;99.90
40960;DHT22;27842;52.272;8.052;2022-12-29T07:37:46;9.90;99.90
40960;DHT22;27842;52.272;8.052;2022-12-29T07:40:11;9.80;99.90
40960;DHT22;27842;52.272;8.052;2022-12-29T07:42:38;9.80;99.90
40960;DHT22;27842;52.272;8.052;2022-12-29T07:45:03;9.80;99.90
40960;DHT22;27842;52.272;8.052;2022-12-29T07:47:29;9.80;99.90
40960;DHT22;27842;52.272;8.052;2022-12-29T07:49:55;9.80;99.90
40960;DHT22;27842;52.272;8.052;2022-12-29T07:52:20;9.80;99.90
40960;DHT22;27842;52.272;8.052;2022-12-29T07:54:46;9.80;99.90
40960;DHT22;27842;52.272;8.052;2022-12-29T07:57:12;9.80;99.90
40960;DHT22;27842;52.272;8.052;2022-12-29T07:59:37;9.80;99.90
40960;DHT22;27842;52.272;8.052;2022-12-29T08:02:03;9.80;99.90
40960;DHT22;27842;52.272;8.052;2022-12-29T08:04:28;9.80;99.90
40960;DHT22;27842;52.272;8.052;2022-12-29T08:06:54;9.80;99.90
40960;DHT22;27842;52.272;8.052;2022-12-29T08:09:19;9.70;99.90
40960;DHT22;27842;52.272;8.052;2022-12-29T08:11:45;9.80;99.90
40960;DHT22;27842;52.272;8.052;2022-12-29T08:14:11;9.70;99.90
40960;DHT22;27842;52.272;8.052;2022-12-29T08:16:36;9.80;99.90
40960;DHT22;27842;52.272;8.052;2022-12-29T08:19:02;9.80;99.90
40960;DHT22;27842;52.272;8.052;2022-12-29T08:21:29;9.80;99.90
40960;DHT22;27842;52.272;8.052;2022-12-29T08:23:55;9.80;99.90
40960;DHT22;27842;52.272;8.052;2022-12-29T08:26:20;9.80;99.90
40960;DHT22;27842;52.272;8.052;2022-12-29T08:28:46;9.80;99.90
40960;DHT22;27842;52.272;8.052;2022-12-29T08:31:11;9.80;99.90
40960;DHT22;27842;52.272;8.052;2022-12-29T08:33:37;9.80;99.90
40960;DHT22;27842;52.272;8.052;2022-12-29T08:36:04;9.80;99.90
40960;DHT22;27842;52.272;8.052;2022-12-29T08:38:30;9.80;99.90
40960;DHT22;27842;52.272;8.052;2022-12-29T08:40:57;9.90;99.90
40960;DHT22;27842;52.272;8.052;2022-12-29T08:43:23;9.90;99.90
40960;DHT22;27842;52.272;8.052;2022-12-29T08:45:49;9.90;99.90
40960;DHT22;27842;52.272;8.052;2022-12-29T08:48:14;10.00;99.90
40960;DHT22;27842;52.272;8.052;2022-12-29T08:50:44;10.00;99.90
40960;DHT22;27842;52.272;8.052;2022-12-29T08:53:09;10.00;99.90
40960;DHT22;27842;52.272;8.052;2022-12-29T08:55:35;10.00;99.90
40960;DHT22;27842;52.272;8.052;2022-12-29T08:58:01;10.00;99.90
40960;DHT22;27842;52.272;8.052;2022-12-29T09:00:26;10.00;99.90
40960;DHT22;27842;52.272;8.052;2022-12-29T09:02:52;10.00;99.90
40960;DHT22;27842;52.272;8.052;2022-12-29T09:05:17;10.00;99.90
40960;DHT22;27842;52.272;8.052;2022-12-29T09:07:43;10.10;99.90
40960;DHT22;27842;52.272;8.052;2022-12-29T09:10:09;10.10;99.90
40960;DHT22;27842;52.272;8.052;2022-12-29T09:12:34;10.10;99.90
40960;DHT22;27842;52.272;8.052;2022-12-29T09:15:00;10.10;99.90
40960;DHT22;27842;52.272;8.052;2022-12-29T09:17:25;10.20;99.90
40960;DHT22;27842;52.272;8.052;2022-12-29T09:20:08;10.20;99.90
40960;DHT22;27842;52.272;8.052;2022-12-29T09:22:34;10.20;99.90
40960;DHT22;27842;52.272;8.052;2022-12-29T09:25:00;10.30;99.90
40960;DHT22;27842;52.272;8.052;2022-12-29T09:27:26;10.30;99.90
40960;DHT22;27842;52.272;8.052;2022-12-29T09:29:51;10.40;99.90
40960;DHT22;27842;52.272;8.052;2022-12-29T09:32:17;10.40;99.90
40960;DHT22;27842;52.272;8.052;2022-12-29T09:34:42;10.40;99.90
40960;DHT22;27842;52.272;8.052;2022-12-29T09:37:08;10.50;99.90
40960;DHT22;27842;52.272;8.052;2022-12-29T09:39:36;10.50;99.90
40960;DHT22;27842;52.272;8.052;2022-12-29T09:47:23;10.70;99.90
40960;DHT22;27842;52.272;8.052;2022-12-29T09:49:54;10.80;99.90
40960;DHT22;27842;52.272;8.052;2022-12-29T09:55:49;10.90;99.90
40960;DHT22;27842;52.272;8.052;2022-12-29T10:01:02;11.00;99.90
40960;DHT22;27842;52.272;8.052;2022-12-29T10:03:44;11.10;99.90
40960;DHT22;27842;52.272;8.052;2022-12-29T10:06:21;11.10;99.90
40960;DHT22;27842;52.272;8.052;2022-12-29T10:17:27;11.30;99.90
40960;DHT22;27842;52.272;8.052;2022-12-29T10:20:12;11.30;99.90
40960;DHT22;27842;52.272;8.052;2022-12-29T10:25:32;11.40;99.90
40960;DHT22;27842;52.272;8.052;2022-12-29T10:28:03;11.40;99.90
40960;DHT22;27842;52.272;8.052;2022-12-29T10:30:33;11.40;99.90
40960;DHT22;27842;52.272;8.052;2022-12-29T10:33:02;11.40;99.90
40960;DHT22;27842;52.272;8.052;2022-12-29T10:35:34;11.40;99.90
40960;DHT22;27842;52.272;8.052;2022-12-29T10:41:01;11.40;99.90
40960;DHT22;27842;52.272;8.052;2022-12-29T10:43:31;11.40;99.90
40960;DHT22;27842;52.272;8.052;2022-12-29T10:46:05;11.40;99.90
40960;DHT22;27842;52.272;8.052;2022-12-29T10:48:34;11.40;99.90
40960;DHT22;27842;52.272;8.052;2022-12-29T10:51:02;11.40;99.90
40960;DHT22;27842;52.272;8.052;2022-12-29T10:54:05;11.40;99.90
40960;DHT22;27842;52.272;8.052;2022-12-29T10:56:35;11.30;99.90
40960;DHT22;27842;52.272;8.052;2022-12-29T10:59:25;11.30;99.90
40960;DHT22;27842;52.272;8.052;2022-12-29T11:02:01;11.30;99.90
40960;DHT22;27842;52.272;8.052;2022-12-29T11:07:19;11.30;99.90
40960;DHT22;27842;52.272;8.052;2022-12-29T11:09:45;11.30;99.90
40960;DHT22;27842;52.272;8.052;2022-12-29T11:14:44;11.20;99.90
40960;DHT22;27842;52.272;8.052;2022-12-29T11:17:15;11.20;99.90
40960;DHT22;27842;52.272;8.052;2022-12-29T11:19:42;11.20;99.90
40960;DHT22;27842;52.272;8.052;2022-12-29T11:22:24;11.20;99.90
40960;DHT22;27842;52.272;8.052;2022-12-29T11:24:51;11.20;99.90
40960;DHT22;27842;52.272;8.052;2022-12-29T11:27:20;11.20;99.90
40960;DHT22;27842;52.272;8.052;2022-12-29T11:29:49;11.20;99.90
40960;DHT22;27842;52.272;8.052;2022-12-29T11:32:23;11.20;99.90
40960;DHT22;27842;52.272;8.052;2022-12-29T11:34:49;11.10;99.90
40960;DHT22;27842;52.272;8.052;2022-12-29T11:43:02;11.20;99.90
40960;DHT22;27842;52.272;8.052;2022-12-29T11:45:34;11.20;99.90
40960;DHT22;27842;52.272;8.052;2022-12-29T11:48:14;11.20;99.90
40960;DHT22;27842;52.272;8.052;2022-12-29T11:50:41;11.20;99.90
40960;DHT22;27842;52.272;8.052;2022-12-29T11:55:40;11.20;99.90
40960;DHT22;27842;52.272;8.052;2022-12-29T11:58:15;11.20;99.90
40960;DHT22;27842;52.272;8.052;2022-12-29T12:00:42;11.20;99.90
40960;DHT22;27842;52.272;8.052;2022-12-29T12:03:23;11.20;99.90
40960;DHT22;27842;52.272;8.052;2022-12-29T12:06:02;11.30;99.90
40960;DHT22;27842;52.272;8.052;2022-12-29T12:08:47;11.20;99.90
40960;DHT22;27842;52.272;8.052;2022-12-29T12:11:18;11.30;99.90
40960;DHT22;27842;52.272;8.052;2022-12-29T12:14:15;11.30;99.90
40960;DHT22;27842;52.272;8.052;2022-12-29T12:16:55;11.30;99.90
40960;DHT22;27842;52.272;8.052;2022-12-29T12:19:40;11.30;99.90
40960;DHT22;27842;52.272;8.052;2022-12-29T12:25:18;11.30;99.90
40960;DHT22;27842;52.272;8.052;2022-12-29T12:30:40;11.30;99.90
40960;DHT22;27842;52.272;8.052;2022-12-29T12:49:26;11.00;99.90
40960;DHT22;27842;52.272;8.052;2022-12-29T12:55:10;11.00;99.90
40960;DHT22;27842;52.272;8.052;2022-12-29T12:57:45;10.90;99.90
40960;DHT22;27842;52.272;8.052;2022-12-29T13:00:18;10.90;99.90
40960;DHT22;27842;52.272;8.052;2022-12-29T13:03:10;10.90;99.90
40960;DHT22;27842;52.272;8.052;2022-12-29T13:05:50;10.90;99.90
40960;DHT22;27842;52.272;8.052;2022-12-29T13:08:48;10.90;99.90
40960;DHT22;27842;52.272;8.052;2022-12-29T13:14:24;10.90;99.90
40960;DHT22;27842;52.272;8.052;2022-12-29T13:17:02;10.90;99.90
40960;DHT22;27842;52.272;8.052;2022-12-29T13:20:02;10.80;99.90
40960;DHT22;27842;52.272;8.052;2022-12-29T13:22:55;10.90;99.90
40960;DHT22;27842;52.272;8.052;2022-12-29T13:33:20;11.00;99.90
40960;DHT22;27842;52.272;8.052;2022-12-29T13:36:11;11.00;99.90
40960;DHT22;27842;52.272;8.052;2022-12-29T13:38:46;10.90;99.90
40960;DHT22;27842;52.272;8.052;2022-12-29T13:41:33;10.90;99.90
40960;DHT22;27842;52.272;8.052;2022-12-29T13:44:01;10.90;99.90
40960;DHT22;27842;52.272;8.052;2022-12-29T13:46:34;10.90;99.90
40960;DHT22;27842;52.272;8.052;2022-12-29T13:49:08;10.90;99.90
40960;DHT22;27842;52.272;8.052;2022-12-29T13:51:42;10.90;99.90
40960;DHT22;27842;52.272;8.052;2022-12-29T13:54:14;10.90;99.90
40960;DHT22;27842;52.272;8.052;2022-12-29T13:57:06;10.90;99.90
40960;DHT22;27842;52.272;8.052;2022-12-29T13:59:59;10.90;99.90
40960;DHT22;27842;52.272;8.052;2022-12-29T14:02:45;10.90;99.90
40960;DHT22;27842;52.272;8.052;2022-12-29T14:07:44;10.80;99.90
40960;DHT22;27842;52.272;8.052;2022-12-29T14:10:29;10.80;99.90
40960;DHT22;27842;52.272;8.052;2022-12-29T14:13:22;10.80;99.90
40960;DHT22;27842;52.272;8.052;2022-12-29T14:15:56;10.80;99.90
40960;DHT22;27842;52.272;8.052;2022-12-29T14:18:26;10.90;99.90
40960;DHT22;27842;52.272;8.052;2022-12-29T14:20:56;10.80;99.90
40960;DHT22;27842;52.272;8.052;2022-12-29T14:23:35;10.80;99.90
40960;DHT22;27842;52.272;8.052;2022-12-29T14:31:02;10.80;99.90
40960;DHT22;27842;52.272;8.052;2022-12-29T14:33:30;10.80;99.90
40960;DHT22;27842;52.272;8.052;2022-12-29T14:35:58;10.80;99.90
40960;DHT22;27842;52.272;8.052;2022-12-29T14:38:46;10.80;99.90
40960;DHT22;27842;52.272;8.052;2022-12-29T14:41:22;10.80;99.90
40960;DHT22;27842;52.272;8.052;2022-12-29T14:47:05;10.80;99.90
40960;DHT22;27842;52.272;8.052;2022-12-29T14:49:38;10.80;99.90
40960;DHT22;27842;52.272;8.052;2022-12-29T14:52:23;10.80;99.90
40960;DHT22;27842;52.272;8.052;2022-12-29T14:54:56;10.80;99.90
40960;DHT22;27842;52.272;8.052;2022-12-29T14:57:38;10.70;99.90
40960;DHT22;27842;52.272;8.052;2022-12-29T15:00:14;10.70;99.90
40960;DHT22;27842;52.272;8.052;2022-12-29T15:02:45;10.70;99.90
40960;DHT22;27842;52.272;8.052;2022-12-29T15:05:35;10.70;99.90
40960;DHT22;27842;52.272;8.052;2022-12-29T15:08:03;10.70;99.90
40960;DHT22;27842;52.272;8.052;2022-12-29T15:10:36;10.70;99.90
40960;DHT22;27842;52.272;8.052;2022-12-29T15:13:05;10.70;99.90
40960;DHT22;27842;52.272;8.052;2022-12-29T15:15:38;10.70;99.90
40960;DHT22;27842;52.272;8.052;2022-12-29T15:18:25;10.60;99.90
40960;DHT22;27842;52.272;8.052;2022-12-29T15:21:03;10.60;99.90
40960;DHT22;27842;52.272;8.052;2022-12-29T15:23:33;10.60;99.90
40960;DHT22;27842;52.272;8.052;2022-12-29T15:26:05;10.60;99.90
40960;DHT22;27842;52.272;8.052;2022-12-29T15:28:45;10.60;99.90
40960;DHT22;27842;52.272;8.052;2022-12-29T15:31:20;10.60;99.90
40960;DHT22;27842;52.272;8.052;2022-12-29T15:33:52;10.60;99.90
40960;DHT22;27842;52.272;8.052;2022-12-29T15:36:21;10.60;99.90
40960;DHT22;27842;52.272;8.052;2022-12-29T15:38:48;10.60;99.90
40960;DHT22;27842;52.272;8.052;2022-12-29T15:44:22;10.60;99.90
40960;DHT22;27842;52.272;8.052;2022-12-29T15:46:49;10.50;99.90
40960;DHT22;27842;52.272;8.052;2022-12-29T15:49:15;10.50;99.90
40960;DHT22;27842;52.272;8.052;2022-12-29T15:51:41;10.50;99.90
40960;DHT22;27842;52.272;8.052;2022-12-29T15:54:19;10.50;99.90
40960;DHT22;27842;52.272;8.052;2022-12-29T15:56:46;10.50;99.90
40960;DHT22;27842;52.272;8.052;2022-12-29T15:59:29;10.50;99.90
40960;DHT22;27842;52.272;8.052;2022-12-29T16:01:56;10.50;99.90
40960;DHT22;27842;52.272;8.052;2022-12-29T16:04:23;10.50;99.90
40960;DHT22;27842;52.272;8.052;2022-12-29T16:07:01;10.40;99.90
40960;DHT22;27842;52.272;8.052;2022-12-29T16:09:42;10.40;99.90
40960;DHT22;27842;52.272;8.052;2022-12-29T16:12:17;10.40;99.90
40960;DHT22;27842;52.272;8.052;2022-12-29T16:14:56;10.30;99.90
40960;DHT22;27842;52.272;8.052;2022-12-29T16:17:25;10.20;99.90
40960;DHT22;27842;52.272;8.052;2022-12-29T16:19:58;10.10;99.90
40960;DHT22;27842;52.272;8.052;2022-12-29T16:22:54;10.00;99.90
40960;DHT22;27842;52.272;8.052;2022-12-29T16:25:32;9.90;99.90
40960;DHT22;27842;52.272;8.052;2022-12-29T16:28:00;9.90;99.90
40960;DHT22;27842;52.272;8.052;2022-12-29T16:30:28;9.80;99.90
40960;DHT22;27842;52.272;8.052;2022-12-29T16:32:57;9.80;99.90
40960;DHT22;27842;52.272;8.052;2022-12-29T16:35:44;9.70;99.90
40960;DHT22;27842;52.272;8.052;2022-12-29T16:38:30;9.70;99.90
40960;DHT22;27842;52.272;8.052;2022-12-29T16:41:00;9.60;99.90
40960;DHT22;27842;52.272;8.052;2022-12-29T16:43:33;9.60;99.90
40960;DHT22;27842;52.272;8.052;2022-12-29T16:48:26;9.50;99.90
40960;DHT22;27842;52.272;8.052;2022-12-29T16:51:01;9.50;99.90
40960;DHT22;27842;52.272;8.052;2022-12-29T16:53:31;9.50;99.90
40960;DHT22;27842;52.272;8.052;2022-12-29T16:56:05;9.40;99.90
40960;DHT22;27842;52.272;8.052;2022-12-29T16:58:31;9.40;99.90
40960;DHT22;27842;52.272;8.052;2022-12-29T17:01:00;9.40;99.90
40960;DHT22;27842;52.272;8.052;2022-12-29T17:03:32;9.40;99.90
40960;DHT22;27842;52.272;8.052;2022-12-29T17:05:57;9.40;99.90
40960;DHT22;27842;52.272;8.052;2022-12-29T17:08:23;9.30;99.90
40960;DHT22;27842;52.272;8.052;2022-12-29T17:10:54;9.40;99.90
40960;DHT22;27842;52.272;8.052;2022-12-29T17:13:39;9.40;99.90
40960;DHT22;27842;52.272;8.052;2022-12-29T17:16:06;9.30;99.90
40960;DHT22;27842;52.272;8.052;2022-12-29T17:18:33;9.40;99.90
40960;DHT22;27842;52.272;8.052;2022-12-29T17:20:59;9.40;99.90
40960;DHT22;27842;52.272;8.052;2022-12-29T17:23:25;9.40;99.90
40960;DHT22;27842;52.272;8.052;2022-12-29T17:25:51;9.50;99.90
40960;DHT22;27842;52.272;8.052;2022-12-29T17:28:22;9.50;99.90
40960;DHT22;27842;52.272;8.052;2022-12-29T17:30:49;9.50;99.90
40960;DHT22;27842;52.272;8.052;2022-12-29T17:33:19;9.40;99.90
40960;DHT22;27842;52.272;8.052;2022-12-29T17:35:45;9.40;99.90
40960;DHT22;27842;52.272;8.052;2022-12-29T17:38:33;9.40;99.90
40960;DHT22;27842;52.272;8.052;2022-12-29T17:40:59;9.40;99.90
40960;DHT22;27842;52.272;8.052;2022-12-29T17:43:25;9.40;99.90
40960;DHT22;27842;52.272;8.052;2022-12-29T17:45:56;9.40;99.90
40960;DHT22;27842;52.272;8.052;2022-12-29T17:48:22;9.40;99.90
40960;DHT22;27842;52.272;8.052;2022-12-29T17:50:50;9.40;99.90
40960;DHT22;27842;52.272;8.052;2022-12-29T17:53:20;9.40;99.90
40960;DHT22;27842;52.272;8.052;2022-12-29T17:55:46;9.40;99.90
40960;DHT22;27842;52.272;8.052;2022-12-29T17:58:26;9.40;99.90